Flight Track Log - Related Links

Times and Time Zones

All times are in EDT time to prevent confusion due to time zone crossing. See the JBU234 flight status page for this flight to view local times or setup timezone preferences in your user account.

Time Position Orientation Groundspeed Altitude Reporting Facility
EDT Latitude Longitude Course Direction KTS MPH feet Rate Location/Type
Fri 11:08:37 PM 40.6333 -73.8333 27° Northeast 152 175 1,800  Level New York TRACON
Fri 11:09:37 PM 40.6000 -73.8500 201° Southwest 244 281 3,500 2,450 Climbing New York TRACON
Fri 11:10:00 PM 40.8759 -73.6333 North  Level FlightAware Approximate
Fri 11:10:37 PM 40.6000 -73.7667 90° East 277 319 6,700  Level New York TRACON
Fri 11:11:00 PM 40.9636 -73.5932 21° North  Level FlightAware Approximate
Fri 11:11:37 PM 40.6500 -73.6833 52° Northeast 300 345 9,500  Level New York TRACON
Fri 11:12:00 PM 41.0492 -73.5450 27° Northeast  Level FlightAware Approximate
Fri 11:12:37 PM 40.7167 -73.6000 43° Northeast 338 389 11,000  Level New York TRACON
Fri 11:13:00 PM 41.1324 -73.4896 27° Northeast  Level FlightAware Approximate
Fri 11:14:52 PM 40.9222 -73.4894 22° Northeast 407 468 14,200  Level Boston Center
Fri 11:15:53 PM 41.0267 -73.4581 13° North 388 447 16,500 1,388 Climbing Boston Center
Fri 11:16:53 PM 41.1436 -73.4214 13° North 388 447 17,000 1,100 Climbing Boston Center
Fri 11:17:53 PM 41.2417 -73.3953 11° North 398 458 18,700 1,613 Climbing Boston Center
Fri 11:18:52 PM 41.3586 -73.3858 North 404 465 20,200 1,150 Climbing Boston Center
Fri 11:19:53 PM 41.4733 -73.3764 North 411 473 21,000 397 Climbing Boston Center
Fri 11:20:53 PM 41.5797 -73.3725 North 400 460 21,000  Level Boston Center
Fri 11:21:52 PM 41.6922 -73.3658 North 394 453 21,000  Level Boston Center
Fri 11:22:52 PM 41.7986 -73.3561 North 394 453 21,000  Level Boston Center
Fri 11:23:53 PM 41.9050 -73.3494 North 388 447 21,000  Level Boston Center
Fri 11:24:52 PM 42.0133 -73.3425 North 388 447 21,000  Level Boston Center
Fri 11:25:52 PM 42.1197 -73.3358 North 388 447 21,000  Level Boston Center
Fri 11:26:54 PM 42.2261 -73.3261 North 383 441 21,000  Level Boston Center
Fri 11:27:52 PM 42.3325 -73.3164 North 383 441 21,000 -458 Level Boston Center
Fri 11:28:52 PM 42.4408 -73.3039 North 383 441 20,100 -1,091 Descending Boston Center
Fri 11:29:53 PM 42.5431 -73.2994 North 383 441 18,800 -1,400 Descending Boston Center
Fri 11:30:52 PM 42.6556 -73.2925 North 372 428 17,300 -1,462 Descending Boston Center
Fri 11:31:52 PM 42.7578 -73.2828 North 362 417 15,900 -1,150 Descending Boston Center
Fri 11:32:52 PM 42.8558 -73.2783 North 362 417 15,000 -450 Descending Boston Center
Fri 11:33:52 PM 42.9600 -73.2686 North 370 426 15,000  Level Boston Center
Fri 11:34:52 PM 43.0622 -73.2614 North 370 426 15,000  Level Boston Center
Fri 11:35:52 PM 43.1708 -73.2514 North 370 426 15,000  Level Boston Center
Fri 11:36:52 PM 43.2750 -73.2442 North 377 434 15,000 -250 Level Boston Center
Fri 11:37:52 PM 43.3833 -73.2342 North 385 443 14,500 -590 Descending Boston Center
Fri 11:38:54 PM 43.4814 -73.2297 North 385 443 13,800 -750 Descending Boston Center
Fri 11:39:52 PM 43.5856 -73.2225 North 385 443 13,000 -915 Descending Boston Center
Fri 11:40:52 PM 43.7025 -73.2125 North 385 443 12,000 -885 Descending Boston Center
Fri 11:41:54 PM 43.8044 -73.2081 North 380 437 11,200 -492 Descending Boston Center
Fri 11:42:54 PM 43.9089 -73.1981 North 375 432 11,000 -101 Descending Boston Center
Fri 11:43:53 PM 43.9964 -73.1903 North 346 398 11,000 -504 Level Boston Center
Fri 11:44:53 PM 44.0753 -73.2089 350° North 304 350 10,000 -1,240 Descending Boston Center
Fri 11:45:54 PM 44.1481 -73.2472 339° North 279 321 8,500 -1,537 Descending Boston Center
Fri 11:46:54 PM 44.2186 -73.2831 340° North 274 315 6,900 -1,636 Descending Boston Center
Fri 11:47:55 PM 44.2872 -73.3131 343° North 268 308 5,200 -1,729 Descending Boston Center
Fri 11:48:52 PM 44.3494 -73.3283 350° North 261 300 3,500 -1,119 Descending Boston Center
Fri 11:49:53 PM 44.4203 -73.3439 351° North 261 300 3,000 -694 Descending Boston Center
Fri 11:50:53 PM 44.4789 -73.3072 24° Northeast 236 272 2,100 -700 Descending Boston Center
Fri 11:51:53 PM 44.5147 -73.2436 52° Northeast 209 241 1,600 -645 Descending Boston Center
Fri 11:52:54 PM 44.4922 -73.1881 120° Southeast 122 140 800 -600 Descending Boston Center
Fri 11:53:53 PM 44.4694 -73.1497 130° Southeast 122 140 400 -200 Descending Boston Center
Fri 11:54:54 PM 44.4656 -73.1469 153° Southeast 96 110 400  Level Boston Center
Fri 11:55:52 PM 44.4675 -73.1528 295° West 70 81 400  Level Boston Center
Fri 11:56:54 PM 44.4592 -73.1381 128° Southeast 44 51 400  Level Boston Center

Login

Don't have an account? Register now (free) for customized features, flight alerts, and more!